createdAt,value
2018-02-17T00:00:48.202Z,2.70
2018-02-17T00:03:28.098Z,2.70
2018-02-17T00:09:04.236Z,2.60
2018-02-17T00:11:47.548Z,2.80
2018-02-17T00:14:22.629Z,2.50
2018-02-17T00:17:19.694Z,2.60
2018-02-17T00:19:58.903Z,2.60
2018-02-17T00:22:33.436Z,2.60
2018-02-17T00:25:13.377Z,2.50
2018-02-17T00:27:54.240Z,2.40
2018-02-17T00:30:33.576Z,2.50
2018-02-17T00:33:10.641Z,2.50
2018-02-17T00:35:45.973Z,2.40
2018-02-17T00:38:20.272Z,2.40
2018-02-17T00:40:53.001Z,2.30
2018-02-17T00:43:29.984Z,2.30
2018-02-17T00:48:33.800Z,2.20
2018-02-17T00:51:07.870Z,2.10
2018-02-17T00:53:45.663Z,2.10
2018-02-17T00:56:23.848Z,2.00
2018-02-17T00:59:01.224Z,2.10
2018-02-17T01:01:35.457Z,2.10
2018-02-17T01:04:15.820Z,2.10
2018-02-17T01:06:55.431Z,2.20
2018-02-17T01:09:30.813Z,2.10
2018-02-17T01:12:09.440Z,2.10
2018-02-17T01:14:51.315Z,2.10
2018-02-17T01:17:25.670Z,2.00
2018-02-17T01:20:04.958Z,2.00
2018-02-17T01:22:47.395Z,2.00
2018-02-17T01:25:23.853Z,2.00
2018-02-17T01:28:00.262Z,2.00
2018-02-17T01:30:40.084Z,1.90
2018-02-17T01:33:13.917Z,1.90
2018-02-17T01:35:50.856Z,1.90
2018-02-17T01:38:28.208Z,1.80
2018-02-17T01:41:03.521Z,1.80
2018-02-17T01:43:43.138Z,1.80
2018-02-17T01:46:35.324Z,1.80
2018-02-17T01:50:24.878Z,1.80
2018-02-17T01:53:08.349Z,1.80
2018-02-17T01:55:56.862Z,1.80
2018-02-17T01:58:40.441Z,1.90
2018-02-17T02:01:15.737Z,1.90
2018-02-17T02:03:57.982Z,1.90
2018-02-17T02:06:30.692Z,1.90
2018-02-17T02:09:09.026Z,1.90
2018-02-17T02:11:43.806Z,1.90
2018-02-17T02:14:14.982Z,2.00
2018-02-17T02:16:50.449Z,1.90
2018-02-17T02:19:26.797Z,1.90
2018-02-17T02:22:00.892Z,2.00
2018-02-17T02:24:38.044Z,1.90
2018-02-17T02:27:13.523Z,1.90
2018-02-17T02:29:55.423Z,1.90
2018-02-17T02:32:29.510Z,1.90
2018-02-17T02:35:05.646Z,1.90
2018-02-17T02:37:40.897Z,1.90
2018-02-17T02:42:57.824Z,1.80
2018-02-17T02:45:34.126Z,1.70
2018-02-17T02:48:09.718Z,1.70
2018-02-17T02:50:47.856Z,1.70
2018-02-17T02:53:25.183Z,1.70
2018-02-17T02:55:58.497Z,1.60
2018-02-17T02:58:34.781Z,1.50
2018-02-17T03:01:09.050Z,1.50
2018-02-17T03:03:43.931Z,1.50
2018-02-17T03:06:17.794Z,1.40
2018-02-17T03:08:54.618Z,1.40
2018-02-17T03:11:31.053Z,1.40
2018-02-17T03:14:07.033Z,1.50
2018-02-17T03:16:39.989Z,1.50
2018-02-17T03:19:15.528Z,1.50
2018-02-17T03:21:49.785Z,1.60
2018-02-17T03:24:23.754Z,1.50
2018-02-17T03:26:58.656Z,1.60
2018-02-17T03:29:32.844Z,1.70
2018-02-17T03:32:09.978Z,1.70
2018-02-17T03:34:42.519Z,1.70
2018-02-17T03:37:23.424Z,1.60
2018-02-17T03:39:57.736Z,1.60
2018-02-17T03:42:32.987Z,1.60
2018-02-17T03:45:04.675Z,1.60
2018-02-17T03:47:44.287Z,1.60
2018-02-17T03:50:17.444Z,1.60
2018-02-17T03:52:50.156Z,1.60
2018-02-17T03:55:23.244Z,1.60
2018-02-17T03:57:57.791Z,1.60
2018-02-17T04:00:33.000Z,1.60
2018-02-17T04:03:05.194Z,1.60
2018-02-17T04:05:54.129Z,1.70
2018-02-17T04:08:27.056Z,1.70
2018-02-17T04:11:01.781Z,1.70
2018-02-17T04:13:34.109Z,1.70
2018-02-17T04:16:09.338Z,1.70
2018-02-17T04:18:46.470Z,1.40
2018-02-17T04:23:56.804Z,1.80
2018-02-17T04:26:33.713Z,1.80
2018-02-17T04:29:08.730Z,1.80
2018-02-17T04:31:44.712Z,1.70
2018-02-17T04:34:23.438Z,1.70
2018-02-17T04:37:13.195Z,1.70
2018-02-17T04:39:46.030Z,1.70
2018-02-17T04:42:18.267Z,1.70
2018-02-17T04:44:55.145Z,1.60
2018-02-17T04:47:26.676Z,1.60
2018-02-17T04:50:02.405Z,1.60
2018-02-17T04:52:36.928Z,1.50
2018-02-17T04:55:10.605Z,1.60
2018-02-17T04:57:46.414Z,1.60
2018-02-17T05:00:20.493Z,1.60
2018-02-17T05:02:54.701Z,1.60
2018-02-17T05:05:26.345Z,1.60
2018-02-17T05:08:03.554Z,1.60
2018-02-17T05:10:37.292Z,1.50
2018-02-17T05:13:18.328Z,1.60
2018-02-17T05:15:51.705Z,1.60
2018-02-17T05:18:29.959Z,1.60
2018-02-17T05:21:03.150Z,1.60
2018-02-17T05:23:38.118Z,1.70
2018-02-17T05:26:13.323Z,1.70
2018-02-17T05:28:50.543Z,1.70
2018-02-17T05:31:28.901Z,1.70
2018-02-17T05:34:10.579Z,1.70
2018-02-17T05:36:44.807Z,1.70
2018-02-17T05:39:21.571Z,1.70
2018-02-17T05:41:55.732Z,1.60
2018-02-17T05:44:28.409Z,1.60
2018-02-17T05:47:01.861Z,1.60
2018-02-17T05:49:32.395Z,1.50
2018-02-17T05:52:05.039Z,1.50
2018-02-17T05:54:42.098Z,1.50
2018-02-17T05:57:16.674Z,1.50
2018-02-17T05:59:47.258Z,1.50
2018-02-17T06:02:24.330Z,1.40
2018-02-17T06:10:41.572Z,1.40
2018-02-17T06:13:22.661Z,1.40
2018-02-17T06:15:58.691Z,1.40
2018-02-17T06:18:36.148Z,1.40
2018-02-17T06:21:08.355Z,1.40
2018-02-17T06:23:42.711Z,1.40
2018-02-17T06:26:26.450Z,1.40
2018-02-17T06:29:11.423Z,1.50
2018-02-17T06:31:45.057Z,2.20
2018-02-17T06:34:30.538Z,2.90
2018-02-17T06:37:05.591Z,2.60
2018-02-17T06:39:48.224Z,2.20
2018-02-17T06:42:23.679Z,2.20
2018-02-17T06:44:57.348Z,1.90
2018-02-17T06:47:46.521Z,1.80
2018-02-17T06:50:20.390Z,1.70
2018-02-17T06:52:55.702Z,1.70
2018-02-17T06:55:33.320Z,1.70
2018-02-17T06:58:10.886Z,1.70
2018-02-17T07:00:48.711Z,1.70
2018-02-17T07:03:26.328Z,1.80
2018-02-17T07:06:06.615Z,1.70
2018-02-17T07:08:53.075Z,1.70
2018-02-17T07:11:34.926Z,1.70
2018-02-17T07:14:27.366Z,1.70
